Time;durP1;ratioP1;P1;durP2;ratioP2;P2;SDS_P1;SDS_P2;PMS_P1;PMS_P2;Temp;Humidity;BMP_temperature;BMP_pressure;BME280_temperature;BME280_humidity;BME280_pressure;Samples;Min_cycle;Max_cycle;Signal;HPM_P1;HPM_P2
2022/10/17 00:02:27;;;;;;;12.20;3.97;;;18.90;99.90;;;;;;7904146;73;26247;-65
2022/10/17 00:12:29;;;;;;;8.47;3.03;;;18.90;99.90;;;;;;7926204;73;26296;-65
2022/10/17 00:22:32;;;;;;;7.50;3.27;;;18.90;99.90;;;;;;7914406;73;26240;-66
2022/10/17 00:32:34;;;;;;;11.17;3.20;;;18.90;99.90;;;;;;7883993;73;26241;-61
2022/10/17 00:42:37;;;;;;;6.63;3.03;;;18.90;99.90;;;;;;7872961;73;27054;-61
2022/10/17 00:52:41;;;;;;;6.33;3.43;;;18.90;99.90;;;;;;7861420;73;26229;-62
2022/10/17 01:02:43;;;;;;;5.93;2.93;;;18.90;99.90;;;;;;7914090;73;27089;-58
2022/10/17 01:12:52;;;;;;;8.17;3.90;;;18.90;99.90;;;;;;7913781;73;26918;-59
2022/10/17 01:23:00;;;;;;;5.33;2.97;;;18.90;99.90;;;;;;7911323;73;26702;-60
2022/10/17 01:33:08;;;;;;;6.80;3.10;;;18.90;99.90;;;;;;7913017;73;26283;-56
2022/10/17 01:43:22;;;;;;;6.00;2.97;;;18.90;99.90;;;;;;7961107;73;26377;-58
2022/10/17 01:53:28;;;;;;;6.23;2.87;;;18.90;99.90;;;;;;7902286;73;26266;-58
2022/10/17 02:03:33;;;;;;;4.27;3.27;;;18.90;99.90;;;;;;7733518;73;26811;-57
2022/10/17 02:13:47;;;;;;;5.60;3.37;;;18.90;99.90;;;;;;7745102;75;26261;-57
2022/10/17 02:24:12;;;;;;;7.07;2.90;;;18.90;99.90;;;;;;7648754;75;26242;-58
2022/10/17 02:34:23;;;;;;;5.47;3.40;;;18.90;99.90;;;;;;7714309;75;26295;-57
2022/10/17 02:44:28;;;;;;;4.47;2.90;;;18.90;99.90;;;;;;7692872;75;26247;-57
2022/10/17 02:54:42;;;;;;;4.27;2.83;;;18.80;99.90;;;;;;7721576;75;26377;-57
2022/10/17 03:04:46;;;;;;;4.73;3.30;;;18.80;99.90;;;;;;7674622;75;26244;-58
2022/10/17 03:14:48;;;;;;;5.40;2.77;;;18.80;99.90;;;;;;7719648;75;26236;-56
2022/10/17 03:24:51;;;;;;;4.87;2.90;;;18.80;99.90;;;;;;7728449;75;26726;-57
2022/10/17 03:34:53;;;;;;;6.73;3.23;;;18.80;99.90;;;;;;7698029;75;26310;-57
2022/10/17 03:44:56;;;;;;;4.77;2.67;;;18.80;99.90;;;;;;7710206;75;26745;-58
2022/10/17 03:54:58;;;;;;;3.80;2.77;;;18.70;99.90;;;;;;7708716;75;26305;-58
2022/10/17 04:05:01;;;;;;;4.23;3.10;;;18.70;99.90;;;;;;7705159;75;26341;-57
2022/10/17 04:15:04;;;;;;;5.00;2.60;;;18.70;99.90;;;;;;7691432;75;26300;-58
2022/10/17 04:25:07;;;;;;;3.20;2.80;;;18.70;99.90;;;;;;7706560;75;26237;-60
2022/10/17 04:35:09;;;;;;;6.93;3.40;;;18.70;99.90;;;;;;7710079;75;26307;-58
2022/10/17 04:45:12;;;;;;;4.40;3.20;;;18.70;99.90;;;;;;7738434;74;26785;-58
2022/10/17 04:55:14;;;;;;;3.07;2.77;;;18.70;99.90;;;;;;7705006;75;26295;-57
2022/10/17 05:05:17;;;;;;;6.97;3.10;;;18.70;99.90;;;;;;7708578;75;26264;-58
2022/10/17 05:15:19;;;;;;;4.37;2.67;;;18.70;99.90;;;;;;7718096;75;26314;-58
2022/10/17 05:25:23;;;;;;;3.97;2.60;;;18.70;99.90;;;;;;7723202;75;26267;-57
2022/10/17 05:35:25;;;;;;;8.77;2.80;;;18.70;99.90;;;;;;7697060;75;26834;-58
2022/10/17 05:45:28;;;;;;;4.50;3.00;;;18.70;99.90;;;;;;7709432;75;26314;-61
2022/10/17 05:55:30;;;;;;;4.27;3.07;;;18.60;99.90;;;;;;7709670;75;26342;-57
2022/10/17 06:05:35;;;;;;;4.60;3.10;;;18.60;99.90;;;;;;7700442;75;26245;-58
2022/10/17 06:15:37;;;;;;;5.37;3.00;;;18.60;99.90;;;;;;7709273;75;26237;-60
2022/10/17 06:25:40;;;;;;;5.87;2.50;;;18.60;99.90;;;;;;7699794;75;26310;-56
2022/10/17 06:35:42;;;;;;;5.73;2.90;;;18.60;99.90;;;;;;7706222;75;26233;-57
2022/10/17 06:45:46;;;;;;;4.33;3.07;;;18.60;99.90;;;;;;7714900;74;26236;-56
2022/10/17 06:55:54;;;;;;;5.27;2.90;;;18.60;99.90;;;;;;7696705;75;26216;-59
2022/10/17 07:05:57;;;;;;;5.23;2.87;;;18.70;99.90;;;;;;7705136;75;26245;-59
2022/10/17 07:16:00;;;;;;;7.03;3.20;;;18.70;99.90;;;;;;7704785;75;26227;-59
2022/10/17 07:26:08;;;;;;;4.93;3.13;;;18.70;99.90;;;;;;7691825;75;26243;-59
2022/10/17 07:36:11;;;;;;;14.57;3.03;;;18.70;99.90;;;;;;7706582;75;26706;-59
2022/10/17 07:46:13;;;;;;;5.00;3.10;;;18.80;99.90;;;;;;7709776;75;26784;-59
2022/10/17 07:56:16;;;;;;;4.23;2.93;;;18.80;99.90;;;;;;7709361;75;26232;-59
2022/10/17 08:06:18;;;;;;;4.47;3.00;;;18.90;99.90;;;;;;7752709;75;26705;-57
2022/10/17 08:16:21;;;;;;;5.70;3.50;;;19.00;99.90;;;;;;7764280;75;26263;-60
2022/10/17 08:26:23;;;;;;;4.90;3.00;;;19.20;99.90;;;;;;7759716;75;26299;-60
2022/10/17 08:36:28;;;;;;;5.40;3.00;;;19.30;99.90;;;;;;7769462;75;26317;-57
2022/10/17 08:46:33;;;;;;;4.90;3.00;;;19.40;99.90;;;;;;7764519;75;26282;-60
2022/10/17 08:56:48;;;;;;;4.23;2.50;;;19.60;99.90;;;;;;7745590;75;26255;-60
2022/10/17 09:06:59;;;;;;;6.73;2.60;;;19.70;99.90;;;;;;7754964;75;26264;-57
2022/10/17 09:17:30;;;;;;;5.20;2.50;;;19.90;99.90;;;;;;7759262;75;27005;-57
2022/10/17 09:27:44;;;;;;;6.73;2.90;;;20.10;99.90;;;;;;7766157;75;26268;-58
2022/10/17 09:37:49;;;;;;;11.10;2.90;;;20.20;99.90;;;;;;7767164;75;26385;-62
2022/10/17 09:48:00;;;;;;;12.43;2.70;;;20.30;99.90;;;;;;7755128;75;26220;-59
2022/10/17 09:58:05;;;;;;;5.43;2.60;;;20.40;99.90;;;;;;7771220;75;26237;-60
2022/10/17 10:08:18;;;;;;;7.97;4.17;;;20.50;99.90;;;;;;7706682;75;26239;-62
2022/10/17 10:18:30;;;;;;;8.97;3.97;;;20.50;99.90;;;;;;7728973;75;26236;-60
2022/10/17 10:28:35;;;;;;;4.83;3.20;;;20.60;99.90;;;;;;7709175;75;26257;-63
2022/10/17 10:38:41;;;;;;;7.87;2.73;;;20.70;99.90;;;;;;7716909;75;26316;-62
2022/10/17 10:48:58;;;;;;;8.67;2.40;;;20.70;99.90;;;;;;7687772;75;26244;-63
2022/10/17 10:59:10;;;;;;;4.83;3.20;;;20.70;99.90;;;;;;7700748;75;26725;-66
2022/10/17 11:09:24;;;;;;;6.00;2.80;;;20.70;99.90;;;;;;7706632;75;26284;-65
2022/10/17 11:19:40;;;;;;;9.53;4.03;;;20.70;99.90;;;;;;7702706;75;26244;-62
2022/10/17 11:29:44;;;;;;;13.73;5.77;;;20.70;99.90;;;;;;7676028;75;26792;-64
2022/10/17 11:39:53;;;;;;;20.37;10.03;;;20.70;99.90;;;;;;7699438;75;26252;-63
2022/10/17 11:50:04;;;;;;;20.03;7.63;;;20.70;99.90;;;;;;7706250;75;26313;-62
2022/10/17 12:00:24;;;;;;;25.23;12.37;;;20.70;99.90;;;;;;7668189;75;26305;-60
2022/10/17 12:10:33;;;;;;;38.87;18.10;;;20.70;99.90;;;;;;7533055;77;26248;-63
2022/10/17 12:20:37;;;;;;;30.37;13.57;;;20.80;99.90;;;;;;7534775;77;26724;-62
2022/10/17 12:31:04;;;;;;;34.73;17.07;;;20.80;99.90;;;;;;7544514;77;26274;-62
2022/10/17 12:41:07;;;;;;;53.17;28.07;;;20.80;99.90;;;;;;7530495;77;26278;-60
2022/10/17 12:51:17;;;;;;;37.43;16.80;;;20.90;99.90;;;;;;7528561;77;26803;-60
2022/10/17 13:01:31;;;;;;;111.80;52.07;;;20.90;99.90;;;;;;7587668;75;26302;-61
2022/10/17 13:11:35;;;;;;;48.67;23.57;;;20.90;99.90;;;;;;7706704;75;26296;-58
2022/10/17 13:21:38;;;;;;;28.77;13.10;;;20.90;99.90;;;;;;7709635;74;26265;-57
2022/10/17 13:31:43;;;;;;;29.60;14.97;;;20.90;99.90;;;;;;7708208;75;26739;-60
2022/10/17 13:41:45;;;;;;;59.87;30.23;;;21.00;99.90;;;;;;7658847;75;26268;-59
2022/10/17 13:51:51;;;;;;;19.57;12.27;;;21.00;99.90;;;;;;7707201;75;26313;-61
2022/10/17 14:01:54;;;;;;;16.63;8.73;;;20.90;99.90;;;;;;7708964;75;26880;-59
2022/10/17 14:12:15;;;;;;;17.90;7.63;;;21.00;99.90;;;;;;7711945;76;26241;-59
2022/10/17 14:22:23;;;;;;;16.93;5.70;;;21.00;99.90;;;;;;7704387;75;26299;-58
2022/10/17 14:32:30;;;;;;;13.23;6.00;;;21.00;99.90;;;;;;7701413;75;26269;-61
2022/10/17 14:42:34;;;;;;;5.83;3.50;;;21.00;99.90;;;;;;7695480;75;26322;-62
2022/10/17 14:52:37;;;;;;;11.40;4.03;;;21.00;99.90;;;;;;7682886;75;26256;-62
2022/10/17 15:02:40;;;;;;;11.83;3.00;;;21.00;99.90;;;;;;7694386;75;26307;-64
2022/10/17 15:12:42;;;;;;;10.60;3.10;;;21.00;99.90;;;;;;7687109;75;26833;-66
2022/10/17 15:22:45;;;;;;;8.13;2.90;;;21.00;99.90;;;;;;7687590;75;26270;-66
2022/10/17 15:32:48;;;;;;;10.10;2.90;;;21.00;99.90;;;;;;7686052;75;26253;-63
2022/10/17 15:42:51;;;;;;;34.50;26.00;;;21.00;99.90;;;;;;7698571;75;26248;-61
2022/10/17 15:52:54;;;;;;;31.90;19.97;;;20.90;99.90;;;;;;7693890;75;26874;-60
2022/10/17 16:02:56;;;;;;;23.17;13.07;;;20.90;99.90;;;;;;7716429;75;26279;-62
2022/10/17 16:12:59;;;;;;;16.17;8.40;;;20.90;99.90;;;;;;7743052;75;26251;-59
2022/10/17 16:23:03;;;;;;;18.23;7.17;;;20.90;99.90;;;;;;7743457;75;26922;-63
2022/10/17 16:33:05;;;;;;;11.00;5.90;;;20.90;99.90;;;;;;7752747;75;26272;-61
2022/10/17 16:43:11;;;;;;;10.73;4.97;;;20.80;99.90;;;;;;7733976;75;26268;-63
2022/10/17 16:53:14;;;;;;;11.23;3.43;;;20.80;99.90;;;;;;7717649;75;26266;-63
2022/10/17 17:03:16;;;;;;;9.97;3.77;;;20.80;99.90;;;;;;7728841;75;26264;-62
2022/10/17 17:13:19;;;;;;;10.43;4.00;;;20.80;99.90;;;;;;7703328;75;26754;-64
2022/10/17 17:23:21;;;;;;;9.30;4.83;;;20.70;99.90;;;;;;7699602;75;26335;-62
2022/10/17 17:33:24;;;;;;;16.80;5.37;;;20.70;99.90;;;;;;7696118;75;26730;-65
2022/10/17 17:43:27;;;;;;;21.37;6.43;;;20.70;99.90;;;;;;7712063;75;26754;-61
2022/10/17 17:53:30;;;;;;;19.70;6.67;;;20.70;99.90;;;;;;7703871;75;26295;-61
2022/10/17 18:03:32;;;;;;;20.17;6.43;;;20.60;99.90;;;;;;7705287;75;26303;-61
2022/10/17 18:13:35;;;;;;;20.50;6.10;;;20.60;99.90;;;;;;7708653;75;26298;-60
2022/10/17 18:23:45;;;;;;;21.67;6.10;;;20.60;99.90;;;;;;7709919;75;26244;-59
2022/10/17 18:33:49;;;;;;;14.53;5.87;;;20.60;99.90;;;;;;7708280;75;26274;-59
2022/10/17 18:43:53;;;;;;;12.80;4.90;;;20.60;99.90;;;;;;7715684;75;26746;-60
2022/10/17 18:54:01;;;;;;;10.60;4.87;;;20.50;99.90;;;;;;7707895;76;26268;-61
2022/10/17 19:04:03;;;;;;;11.00;4.67;;;20.50;99.90;;;;;;7696793;75;26261;-62
2022/10/17 19:14:11;;;;;;;14.17;4.93;;;20.50;99.90;;;;;;7708817;75;26778;-60
2022/10/17 19:24:16;;;;;;;17.20;5.83;;;20.50;99.90;;;;;;7707066;75;26329;-66
2022/10/17 19:34:18;;;;;;;11.20;4.77;;;20.50;99.90;;;;;;7711709;75;26209;-62
2022/10/17 19:44:21;;;;;;;15.07;4.40;;;20.50;99.90;;;;;;7718258;74;26215;-63
2022/10/17 19:54:23;;;;;;;9.67;4.60;;;20.50;99.90;;;;;;7740602;75;26706;-62
2022/10/17 20:04:26;;;;;;;16.93;4.30;;;20.40;99.90;;;;;;7673518;75;26225;-63
2022/10/17 20:14:29;;;;;;;14.67;4.07;;;20.40;99.90;;;;;;7699684;75;26275;-58
2022/10/17 20:24:31;;;;;;;14.53;4.27;;;20.40;99.90;;;;;;7700361;75;26852;-64
2022/10/17 20:34:34;;;;;;;17.83;5.77;;;20.40;99.90;;;;;;7705091;75;26193;-64
2022/10/17 20:44:36;;;;;;;24.77;4.77;;;20.40;99.90;;;;;;7714256;75;26254;-63
2022/10/17 20:54:39;;;;;;;9.77;3.33;;;20.40;99.90;;;;;;7701132;75;26319;-64
2022/10/17 21:04:41;;;;;;;16.07;4.53;;;20.40;99.90;;;;;;7709035;75;27127;-64
2022/10/17 21:14:44;;;;;;;12.30;3.93;;;20.30;99.90;;;;;;7699451;75;26319;-63
2022/10/17 21:24:46;;;;;;;11.30;3.63;;;20.30;99.90;;;;;;7677290;75;26355;-63
2022/10/17 21:34:49;;;;;;;15.77;4.03;;;20.30;99.90;;;;;;7709111;75;26232;-61
2022/10/17 21:44:51;;;;;;;10.20;3.77;;;20.30;99.90;;;;;;7714636;75;26831;-60
2022/10/17 21:54:54;;;;;;;7.37;3.50;;;20.30;99.90;;;;;;7706971;74;26263;-65
2022/10/17 22:04:56;;;;;;;5.03;3.13;;;20.30;99.90;;;;;;7708929;75;26290;-64
2022/10/17 22:14:59;;;;;;;11.67;3.37;;;20.30;99.90;;;;;;7711429;75;26264;-62
2022/10/17 22:25:01;;;;;;;6.57;3.23;;;20.20;99.90;;;;;;7707738;75;26811;-62
2022/10/17 22:35:04;;;;;;;7.33;3.63;;;20.20;99.90;;;;;;7694948;75;26257;-62
2022/10/17 22:45:07;;;;;;;8.10;3.60;;;20.20;99.90;;;;;;7720124;75;26248;-60
2022/10/17 22:55:10;;;;;;;12.60;4.17;;;20.20;99.90;;;;;;7680424;75;26271;-64
2022/10/17 23:05:12;;;;;;;6.07;3.73;;;20.20;99.90;;;;;;7713624;75;26283;-62
2022/10/17 23:15:15;;;;;;;7.67;2.80;;;20.20;99.90;;;;;;7708576;75;26363;-62
2022/10/17 23:25:17;;;;;;;10.90;3.37;;;20.20;99.90;;;;;;7693866;75;26741;-61
2022/10/17 23:35:20;;;;;;;9.37;3.00;;;20.20;99.90;;;;;;7686604;75;26243;-61
2022/10/17 23:45:22;;;;;;;10.37;3.33;;;20.20;99.90;;;;;;7679151;75;26255;-62
2022/10/17 23:55:25;;;;;;;12.10;3.50;;;20.10;99.90;;;;;;7672997;75;26787;-62
